Airfield :
LOGIN :

Register | Disclaimer

   EN    FR    IT 

 










Legend :    VFR   Marginal VFR   IFR   Intensive IFR   Very Intensive IFR
Visi :
Ceiling :
>= 8 km
>= 3000ft
5 to 8 km
1000 to 3000 ft
1500m to 5 km
500 to 1000 ft
800 to 1500m
200 to 500 ft
< 800m
< 200 ft
Symbols :   Thunderstorms  Fog  Heavy snow  Heavy precipitations  Wind > 20 kt
SIGMETs :     Misc.  Thunderstorms  Icing  Turbulence  Mountain Waves  Volcanic Ashes






- Airport Elevation : 1947 ft
- IATA code : OBF


EDMO - Oberpfaffenhofen

CURRENT METAR :
  • 280350Z AUTO 28010KT 9999 // BKN007/// BKN027/// OVC042/// 11/10 Q1019

EXPIRED METARs :
  • 280320Z AUTO 29009KT 250V310 9999 // BKN007/// BKN014/// OVC030/// 12/11 Q1019
  • 280250Z AUTO 30008KT 260V330 9999 // SCT007/// BKN019/// OVC043/// 12/11 Q1019
  • 280220Z AUTO 28007KT 230V300 6000 // SCT007/// BKN010/// OVC015/// 12/12 Q1018
  • 280150Z AUTO 25009KT 9999 // FEW013/// OVC031/// 13/12 Q1018
  • 280120Z AUTO 26008KT 9999 // SCT033/// OVC041/// 13/11 Q1018
  • 280050Z AUTO 26009KT 9999 // FEW041/// OVC094/// 13/12 Q1018
  • 280020Z AUTO 24008KT 9999 // FEW013/// SCT064/// OVC100/// 13/12 Q1018
  • 272350Z AUTO 22007KT 9999 // OVC064/// 13/13 Q1018
  • 272320Z AUTO 22008KT 9999 // FEW011/// OVC078/// 13/13 Q1018

Expired Forecast.



MET'MAP, your aeronautical weather chart ! - Copyright ORBIFLY December 2007 - Disclaimer

ORBIFLY MET'MAP TEAM :

Programming & Development : Alexandra Zaïnal
Original concept : Baudouin d'Aumeries
Technical & hardware support : Manuel Goepfert
Assistance : Marc-Olivier Méhu




SOURCES & CREDITS :

   NOAA